Portada
METAR-TAF:

METAR-TAF

Aeropuertos :

Tánger, Marruecos

Aeropuerto de Tánger

latitud: 35-44N, longitud: 005-54W, altitud: 19 m

Observación

El informe se hizo hace 20 minutos, a las 11:00 UTC
Viento 4 kt del oeste-noroeste, variando entre suroeste y norte-noroeste
Temperatura 22°C
Humedad 27%
Presión 1020 hPa
Visibilidad: 8000 m

METAR: GMTT 231100Z 29004KT 220V340 8000 NSC 22/02 Q1020 NOSIG

Hora: 11:20 (11:20 UTC)

Pronóstico

El informe se hizo hace 6 horas y 20 minutos, a las 05:00 UTC
Pronóstico válido del 23 a las 06 UTC al 24 a las 12 UTC
Viento 8 kt del este
Visibilidad: 8000 m
Nubes dispersas a una altura de 20000 ft

TAF: GMTT 230500Z 2306/2412 10008KT 8000 SCT200

Observaciones y pronósticos meteorológicos de más de 4000 aeropuertos (mensajes METAR y TAF).

Los puntos amarillos y rojos representan las estaciones disponibles.

Ponga el ratón en el punto deseado para ver el nombre de la estación.

Haga clic para ver las observaciones y los pronósticos meteorológicos.

Para cambiar el mapa : haga clic en los botones verdes con una cruz de color negro para hacer un zoom, en el botón verde con un guión para alejar o en las flechas verdes para mapas adyacentes.


METAR-TAF: